Relevés horaires Beauvechain (Belgique)


Relevés horaires à Beauvechain - Samedi 10 Sept. 2022
Heure UTC1 Température [°C] Vent [km/h] Hum. [%] Pres.4 [hPa] Visi. [Km] Nébu. [octa] Préc.5 [mm] Cond.
2m. Res. Ros. Dir.2 Vit. Moy. Raf.3
23:00 14.8 14.8 14.4 OSO 3.7 -- 3.7 97 1017.7(0.9/3h) 6 -- -- --
22:00 15.0 15.0 14.4 NNO 1.9 -- 5.6 96 1017.3(1.2/3h) 9 -- -- --
21:00 15.3 15.3 14.6 OSO 3.7 -- 7.4 96 1017.1(1.8/3h) 11 -- -- --
20:00 15.7 15.7 14.7 OSO 3.7 -- 5.6 94 1016.7(2.1/3h) 17 -- -- --
19:00 16.2 16.2 14.7 OSO 3.7 -- 7.4 91 1016(1.6/3h) 20 -- -- --
18:00 16.5 16.5 14.5 O 5.6 -- 20.4 88 1015.2(1.4/3h) 15 5/8 0.8/12h
Etat du ciel inchangé
17:00 18.0 18.0 14.8 ONO 9.3 -- 18.5 82 1014.6(1.3/3h) 15 5/8 -- --
16:00 18.3 18.3 14.8 O 11.1 -- 18.5 80 1014.2(1.0/3h) 15 5/8 -- --
15:00 17.8 17.8 15.6 O 5.6 -- 20.4 87 1013.6(1.1/3h) 15 5/8 -- Il y a eu une averse de pluie à la station au cours de l'heure précédente, mais il n'y en a pas au moment de l'observation
14:00 17.2 17.2 15.8 NO 3.7 -- 11.1 91 1013.2(0.5/3h) 9 7/8 -- Il y a des averses de pluie faibles à la station au moment de l'observation
13:00 17.5 17.5 14.8 ONO 7.4 -- 20.4 84 1013.2(0.7/3h) 6 7/8 -- --
12:00 19.5 19.5 13.7 O 11.1 -- 22.2 69 1012.3(0.1/3h) 15 7/8 -- --
11:00 19.0 19.0 13.9 O 13.0 -- 22.2 72 1012.7(0.6/3h) 15 7/8 -- --
10:00 18.3 18.2 14.0 OSO 14.8 -- 22.2 76 1012.3(0.9/3h) 15 7/8 -- --
09:00 16.8 16.6 13.8 OSO 11.1 -- 18.5 82 1012.5(1.4/3h) 15 7/8 -- --
08:00 16.2 15.9 13.7 OSO 11.1 -- 16.7 85 1012.1(1.4/3h) 15 7/8 -- --
07:00 15.7 15.3 13.6 OSO 11.1 -- 16.7 87 1011.6(1.0/3h) 15 7/8 -- --
06:00 15.5 15.1 13.8 SO 11.1 -- 16.7 90 1011(0.4/3h) 14 -- -- --
05:00 15.3 15.1 13.9 SO 9.3 -- 13.0 91 1010.7(0.0/3h) 14 -- -- --
04:00 15.1 14.8 13.8 SO 9.3 -- 13.0 92 1010.5(0.1/3h) 17 -- -- --
03:00 15.1 14.8 13.8 SO 9.3 -- 16.7 92 1010.6(0.0/3h) 20 -- -- --
02:00 14.8 14.5 13.6 SO 9.3 -- 14.8 93 1010.7(0.2/3h) 19 -- -- --
01:00 14.6 14.2 13.4 SSO 9.3 -- 14.8 93 1010.6(0.0/3h) 19 -- -- --
00:00 14.6 14.2 13.3 SO 9.3 -- 18.5 92 1010.7(0.1/3h) 20 -- -- --

1 Coordinated Universal Time. Actuellement il est 06:00 locale et 05:00 UTC.

2 Le vent souffle depuis la direction indiquée vers la direction oposée.

3 Les rafales max. sont disponible 40 min après l'heure du relevé.

4 Pour les stations d'altitude (plus de 600m) le géopotentiel du niveau le plus proche de la pression obligatoire est indiqué.

5 Les stations disposant d'un diffuseur peuvent indiquer "trace". Cela signifie que des précipitations ont touchés le sol mais que la quantité est inférieure à 0.1 mm.

Récapitulatif de la journée
Température [°C] Vent [km/h] Ensoleillement4 [h] Precipitations totale5 [mm] Pression [Hpa]
Min1 Max.2 Moy.3 Max. Min Max.
14.1 20.1 0 22.2 0 h 0 min 0 1010.5 1017.7

1 Température minimale relevée entre 18:00 UTC la veille et 18:00 UTC le jour donné.

2 Température maximale relevée entre 06:00 UTC le jour donné et 06:00 UTC le lendemain.

3 Vent moyen de la journée basé sur les relevés horaires.

4 Ensoleillement en heures relevé entre 06:00 UTC la veille et 06:00 UTC le jour donné.

5 Précipitations totales tombées entre 06:00 UTC la jour donné et 06:00 UTC le lendemain.

Graphiques horaires